Latest Weather Observations for Kuitpo

IDS60901

Issued at 3:51 pm CDT Wednesday 29 March 2017 (issued every 10 minutes, with the page automatically refreshed every 10 minutes)

About weather observations | Map of Adelaide area stations | Latest observations for Adelaide area | Other Formats
Station Details ID: 023887 Name: KUITPO FOREST RESERVE Lat: -35.17 Lon: 138.68 Height: 365.0 m
Data from the previous 72 hours. | See also: Recent months at Kuitpo
Date/Time
CDT
Temp
°C
App
Temp
°C
Dew
Point
°C
Rel
Hum
%
Delta-T
°C
Wind Press
QNH
hPa
Press
MSL
hPa
Rain since
9am
mm
Dir  Spd
km/h
Gust
km/h
Spd
kts
Gust
kts
29/03:30pm 12.5 9.3 11.9 96 0.3 SW 20 32 11 17 1010.8 1009.7 3.4
29/03:00pm 13.2 9.5 12.6 96 0.3 SW 24 35 13 19 1010.2 1009.2 2.4
29/02:30pm 14.9 11.3 14.1 95 0.5 SW 26 43 14 23 1009.4 1008.4 1.2
29/02:18pm 15.3 11.0 13.3 88 1.1 W 28 56 15 30 1009.2 1008.1 0.8
29/02:16pm 16.2 12.2 13.1 82 1.8 W 26 56 14 30 1009.1 1008.0 0.2
29/02:00pm 18.1 13.3 13.0 72 2.9 WNW 30 50 16 27 1009.0 1007.9 0.0
29/01:30pm 18.1 13.9 13.4 74 2.7 WNW 28 50 15 27 1009.3 1008.3 0.0
29/01:02pm 18.0 13.7 13.1 73 2.8 WNW 28 50 15 27 1009.5 1008.5 0.0
29/01:00pm 18.2 14.2 13.1 72 2.9 WNW 26 43 14 23 1009.6 1008.6 0.0
29/12:30pm 18.1 13.0 13.2 73 2.8 WNW 32 50 17 27 1009.8 1008.8 0.0
29/12:04pm 18.2 14.1 13.7 75 2.6 WNW 28 46 15 25 1009.7 1008.7 0.0
29/12:00pm 18.6 14.8 13.7 73 2.8 WNW 26 41 14 22 1009.7 1008.7 0.0
29/11:50am 18.0 13.7 13.3 74 2.7 NW 28 46 15 25 1009.8 1008.8 0.0
29/11:30am 17.8 14.3 13.3 75 2.6 WNW 24 37 13 20 1009.9 1008.9 0.0
29/11:04am 17.1 12.7 13.0 77 2.3 WNW 28 46 15 25 1010.1 1009.1 0.0
29/11:00am 17.2 13.2 13.1 77 2.3 WNW 26 46 14 25 1010.1 1009.1 0.0
29/10:30am 17.1 13.5 13.0 77 2.3 NW 24 39 13 21 1009.9 1008.9 0.0
29/10:00am 16.7 13.1 13.2 80 2.0 WNW 24 35 13 19 1010.2 1009.2 0.0
29/09:30am 15.8 13.2 13.3 85 1.4 NW 19 30 10 16 1010.1 1009.1 0.0
29/09:00am 15.3 12.6 12.8 85 1.4 NW 19 28 10 15 1010.1 1009.1 0.0
29/08:30am 14.8 12.0 12.7 87 1.2 NW 19 26 10 14 1010.1 1009.1 0.0
29/08:00am 14.2 11.5 12.8 91 0.8 NW 19 30 10 16 1009.9 1008.9 0.0
29/07:30am 14.0 11.0 12.7 92 0.7 NW 20 32 11 17 1009.9 1008.9 0.0
29/07:00am 14.0 11.0 12.7 92 0.7 NW 20 30 11 16 1009.7 1008.7 0.0
29/06:30am 14.1 11.2 12.8 92 0.7 NW 20 30 11 16 1009.5 1008.5 0.0
29/06:00am 14.3 11.4 12.9 91 0.8 NW 20 30 11 16 1009.3 1008.3 0.0
29/05:30am 14.7 12.0 12.9 89 1.0 WNW 19 28 10 15 1009.1 1008.0 0.0
29/05:00am 14.8 12.1 12.8 88 1.1 WNW 19 32 10 17 1009.3 1008.3 0.0
29/04:30am 14.7 11.8 12.4 86 1.3 WNW 19 28 10 15 1009.4 1008.4 0.0
29/04:00am 14.8 12.3 12.3 85 1.4 WNW 17 26 9 14 1009.7 1008.7 0.0
29/03:30am 14.7 12.1 12.0 84 1.5 WNW 17 24 9 13 1010.1 1009.1 0.0
29/03:00am 14.3 11.9 11.5 83 1.5 WNW 15 24 8 13 1010.1 1009.1 0.0
29/02:30am 14.4 12.1 11.6 83 1.5 WNW 15 24 8 13 1010.7 1009.6 0.0
29/02:00am 14.4 12.1 11.6 83 1.5 WNW 15 22 8 12 1011.1 1010.0 0.0
29/01:30am 14.3 12.0 11.6 84 1.5 WNW 15 24 8 13 1011.2 1010.1 0.0
29/01:00am 14.3 12.1 12.2 87 1.2 WNW 15 22 8 12 1011.5 1010.4 0.0
29/12:30am 14.5 12.0 12.4 87 1.2 WNW 17 24 9 13 1011.8 1010.8 0.0
29/12:00am 14.6 12.2 12.6 88 1.1 WNW 17 24 9 13 1012.2 1011.2 0.0
 
Date/Time
CDT
Temp
°C
App
Temp
°C
Dew
Point
°C
Rel
Hum
%
Delta-T
°C
Wind Press
QNH
hPa
Press
MSL
hPa
Rain since
9am
mm
Dir  Spd
km/h
Gust
km/h
Spd
kts
Gust
kts
28/11:30pm 14.2 12.1 12.4 89 1.0 W 15 20 8 11 1012.2 1011.2 0.0
28/11:00pm 14.1 12.0 12.5 90 0.9 W 15 24 8 13 1012.6 1011.6 0.0
28/10:30pm 14.0 12.3 12.4 90 0.9 W 13 19 7 10 1012.7 1011.7 0.0
28/10:00pm 14.0 12.7 12.6 91 0.8 W 11 15 6 8 1012.9 1011.9 0.0
28/09:30pm 14.2 13.3 12.6 90 0.9 W 9 13 5 7 1012.9 1011.9 0.0
28/09:00pm 14.1 13.0 12.0 87 1.2 W 9 13 5 7 1012.6 1011.6 0.0
28/08:30pm 15.3 13.4 11.7 79 2.0 WNW 13 20 7 11 1012.6 1011.6 0.0
28/08:00pm 15.7 14.5 11.5 76 2.3 WNW 9 17 5 9 1012.3 1011.3 0.0
28/07:30pm 16.1 14.0 11.3 73 2.6 WNW 13 19 7 10 1012.2 1011.2 0.0
28/07:00pm 16.9 15.3 11.4 70 3.0 WNW 11 19 6 10 1012.2 1011.2 0.0
28/06:30pm 18.1 16.0 11.2 64 3.8 W 13 22 7 12 1012.3 1011.3 0.0
28/06:00pm 19.1 16.4 10.4 57 4.8 WNW 15 26 8 14 1012.3 1011.3 0.0
28/05:30pm 19.4 16.2 10.1 55 5.1 WNW 17 28 9 15 1012.3 1011.3 0.0
28/05:00pm 19.5 16.2 9.7 53 5.3 WNW 17 28 9 15 1012.4 1011.4 0.0
28/04:30pm 19.8 16.4 9.1 50 5.7 WNW 17 28 9 15 1012.5 1011.5 0.0
28/04:00pm 19.9 16.9 9.2 50 5.8 WNW 15 24 8 13 1012.8 1011.8 0.0
28/03:30pm 20.3 17.5 10.1 52 5.6 WNW 15 28 8 15 1012.7 1011.7 0.0
28/03:00pm 20.3 17.7 10.7 54 5.3 NW 15 24 8 13 1013.1 1012.1 0.0
28/02:30pm 20.3 17.0 11.0 55 5.2 WNW 19 32 10 17 1013.5 1012.4 0.0
28/02:00pm 19.4 16.4 10.7 57 4.8 WNW 17 28 9 15 1013.8 1012.7 0.0
28/01:30pm 18.4 14.8 10.0 58 4.5 WNW 19 28 10 15 1014.1 1013.1 0.0
28/01:00pm 18.4 14.9 10.3 59 4.4 W 19 32 10 17 1014.6 1013.6 0.0
28/12:30pm 17.6 14.0 9.8 60 4.2 WNW 19 32 10 17 1015.1 1014.1 0.0
28/12:00pm 17.7 13.7 10.6 63 3.9 WNW 22 33 12 18 1015.4 1014.4 0.0
28/11:30am 17.9 14.9 10.5 62 4.0 WNW 17 28 9 15 1015.5 1014.5 0.0
28/11:00am 17.3 13.7 10.0 62 3.9 WNW 19 33 10 18 1015.5 1014.5 0.0
28/10:30am 16.8 13.4 10.4 66 3.5 WNW 19 32 10 17 1015.6 1014.6 0.0
28/10:00am 16.1 13.3 11.5 74 2.5 W 17 28 9 15 1015.6 1014.6 0.0
28/09:30am 15.5 12.9 11.9 79 2.0 W 17 28 9 15 1015.3 1014.3 0.0
28/09:00am 14.8 13.1 12.5 86 1.3 WNW 13 19 7 10 1015.2 1014.2 1.0
28/08:30am 14.3 12.8 12.0 86 1.3 WNW 11 20 6 11 1015.0 1014.0 1.0
28/08:00am 13.8 11.9 11.8 88 1.1 WNW 13 20 7 11 1014.7 1013.7 1.0
28/07:30am 12.8 11.5 11.2 90 0.9 NW 9 13 5 7 1014.6 1013.6 1.0
28/07:00am 12.7 11.3 10.9 89 1.0 WNW 9 13 5 7 1014.4 1013.4 1.0
28/06:30am 12.6 11.6 11.0 90 0.9 NW 7 15 4 8 1014.1 1013.1 1.0
28/06:00am 12.5 11.5 11.1 91 0.7 WNW 7 13 4 7 1014.2 1013.2 0.8
28/05:30am 13.0 11.4 11.4 90 0.9 W 11 20 6 11 1014.2 1013.2 0.8
28/05:00am 13.1 11.0 11.3 89 1.0 W 13 19 7 10 1014.2 1013.2 0.8
28/04:30am 13.5 11.9 11.4 87 1.1 WSW 11 20 6 11 1014.3 1013.3 0.8
28/04:00am 13.9 12.8 11.8 87 1.1 WNW 9 15 5 8 1014.8 1013.8 0.8
28/03:30am 14.2 13.1 12.1 87 1.2 NW 9 17 5 9 1015.0 1014.0 0.8
28/03:00am 14.1 12.8 11.4 84 1.5 WNW 9 13 5 7 1015.3 1014.3 0.8
28/02:30am 14.4 13.2 11.7 84 1.5 WNW 9 13 5 7 1015.2 1014.2 0.8
28/02:00am 14.4 13.6 11.7 84 1.5 WNW 7 11 4 6 1015.3 1014.3 0.8
28/01:30am 14.3 13.4 11.5 83 1.5 WNW 7 11 4 6 1015.4 1014.4 0.8
28/01:00am 14.2 13.3 11.5 84 1.5 WSW 7 9 4 5 1015.6 1014.6 0.8
28/12:30am 14.4 13.3 11.9 85 1.4 WSW 9 11 5 6 1015.6 1014.6 0.8
28/12:00am 14.2 12.8 12.1 87 1.2 WSW 11 15 6 8 1015.6 1014.6 0.8
 
Date/Time
CDT
Temp
°C
App
Temp
°C
Dew
Point
°C
Rel
Hum
%
Delta-T
°C
Wind Press
QNH
hPa
Press
MSL
hPa
Rain since
9am
mm
Dir  Spd
km/h
Gust
km/h
Spd
kts
Gust
kts
27/11:30pm 14.8 13.7 11.9 83 1.6 W 9 15 5 8 1015.5 1014.5 0.8
27/11:00pm 14.8 12.9 11.8 82 1.6 W 13 22 7 12 1015.4 1014.4 0.8
27/10:30pm 14.2 13.0 11.7 85 1.4 W 9 15 5 8 1015.4 1014.4 0.8
27/10:00pm 14.2 13.0 11.7 85 1.4 W 9 13 5 7 1015.4 1014.4 0.8
27/09:30pm 14.2 13.0 11.7 85 1.4 WSW 9 15 5 8 1015.3 1014.3 0.8
27/09:00pm 14.7 13.2 11.8 83 1.6 WSW 11 15 6 8 1015.2 1014.2 0.8
27/08:30pm 14.9 13.3 11.5 80 1.9 WSW 11 17 6 9 1014.9 1013.9 0.8
27/08:00pm 15.2 13.6 11.4 78 2.1 WSW 11 15 6 8 1014.7 1013.7 0.8
27/07:30pm 15.9 14.0 11.7 76 2.3 WSW 13 19 7 10 1014.5 1013.5 0.8
27/07:00pm 16.7 13.9 11.4 71 2.9 WSW 17 26 9 14 1014.6 1013.6 0.8
27/06:30pm 17.6 14.6 11.9 69 3.2 WSW 19 30 10 16 1014.5 1013.5 0.8
27/06:00pm 17.6 14.6 11.9 69 3.2 WSW 19 30 10 16 1014.2 1013.2 0.8
27/05:30pm 18.9 15.9 11.9 64 3.9 WSW 19 30 10 16 1014.0 1012.9 0.8
27/05:00pm 18.9 15.2 11.5 62 4.1 W 22 37 12 20 1013.8 1012.7 0.8
27/04:30pm 19.2 15.2 10.5 57 4.8 W 22 37 12 20 1013.7 1012.6 0.8
27/04:00pm 18.6 14.8 11.2 62 4.1 W 22 35 12 19 1013.6 1012.5 0.8
27/03:30pm 18.6 14.2 10.4 59 4.5 W 24 39 13 21 1013.5 1012.4 0.8
27/03:00pm 19.3 15.0 10.6 57 4.8 W 24 39 13 21 1013.5 1012.4 0.8
27/02:30pm 18.9 14.4 9.9 56 4.9 WSW 24 39 13 21 1013.6 1012.5 0.8
27/02:00pm 18.4 12.7 9.7 57 4.7 W 30 50 16 27 1013.7 1012.6 0.8
27/01:41pm 18.8 13.0 9.3 54 5.1 W 30 50 16 27 1013.7 1012.6 0.8
27/01:30pm 18.9 13.3 10.2 57 4.7 WSW 30 46 16 25 1013.8 1012.7 0.8
27/01:00pm 19.1 13.8 9.9 55 5.0 WSW 28 50 15 27 1014.1 1013.1 0.8
27/12:54pm 18.5 13.2 9.8 57 4.7 W 28 50 15 27 1014.0 1012.9 0.8
27/12:30pm 17.3 13.5 12.4 73 2.8 WSW 24 37 13 20 1014.5 1013.5 0.8
27/12:14pm 18.0 13.5 12.5 70 3.1 W 28 46 15 25 1014.4 1013.4 0.8
27/12:00pm 18.0 14.8 13.1 73 2.8 WSW 22 39 12 21 1014.3 1013.3 0.8
27/11:30am 16.8 12.9 12.1 74 2.6 WSW 24 39 13 21 1013.9 1012.8 0.8
27/11:00am 16.4 14.1 14.1 86 1.3 WSW 19 30 10 16 1013.9 1012.8 0.8
27/10:30am 15.6 12.8 13.3 86 1.3 W 20 32 11 17 1012.9 1011.9 0.4
27/10:00am 16.6 12.0 12.4 76 2.4 WSW 28 50 15 27 1012.8 1011.8 0.0
27/09:44am 17.5 13.1 13.0 75 2.6 WSW 28 46 15 25 1012.4 1011.4 0.0
27/09:30am 17.4 12.7 13.1 76 2.5 WSW 30 46 16 25 1012.3 1011.3 0.0
27/09:00am 17.5 13.4 13.8 79 2.1 W 28 46 15 25 1011.6 1010.5 0.0
27/08:39am 17.7 13.7 14.2 80 2.0 W 28 46 15 25 1011.4 1010.3 0.0
27/08:30am 17.6 14.1 14.5 82 1.8 W 26 44 14 24 1011.2 1010.1 0.0
27/08:00am 17.2 14.8 14.5 84 1.6 W 20 35 11 19 1010.6 1009.5 0.0
27/07:30am 17.3 15.4 16.7 96 0.4 W 22 48 12 26 1009.7 1008.7 0.0
27/07:00am 17.9 15.9 17.4 97 0.3 W 24 35 13 19 1009.2 1008.1 0.0
27/06:30am 18.2 17.1 17.7 97 0.3 WNW 20 33 11 18 1008.6 1007.5 0.0
27/06:00am 18.5 17.5 18.0 97 0.3 W 20 37 11 20 1008.3 1007.2 0.0
27/05:30am 18.5 17.1 17.9 96 0.4 W 22 37 12 20 1007.8 1006.7 0.0
27/05:00am 18.7 16.8 17.7 94 0.6 W 24 37 13 20 1006.8 1005.7 0.0
27/04:30am 19.3 17.8 17.6 90 1.1 W 22 35 12 19 1006.5 1005.4 0.0
27/04:00am 20.6 19.0 16.4 77 2.6 W 20 32 11 17 1006.2 1005.1 0.0
27/03:39am 23.5 19.5 16.1 63 4.6 WNW 32 48 17 26 1005.5 1004.4 0.0
27/03:30am 28.6 22.9 11.2 34 10.2 NW 32 65 17 35 1004.8 1003.7 0.0
27/03:22am 30.3 24.4 9.2 27 12.0 NW 30 65 16 35 1004.3 1003.2 0.0
27/03:08am 31.5 25.8 8.5 24 13.0 NNW 28 46 15 25 1004.0 1002.9 0.0
27/03:00am 30.6 26.8 8.9 26 12.3 NNW 19 39 10 21 1003.8 1002.7 0.0
27/02:30am 29.1 26.1 10.7 32 10.7 NNE 17 30 9 16 1003.5 1002.4 0.0
27/02:00am 27.7 25.0 11.7 37 9.3 NNE 17 30 9 16 1003.7 1002.6 0.0
27/01:30am 27.8 25.0 12.6 39 9.0 NNE 19 37 10 20 1004.1 1003.0 0.0
27/01:00am 27.6 23.9 12.8 40 8.8 NNE 24 43 13 23 1004.3 1003.2 0.0
27/12:30am 28.1 23.8 13.2 39 9.0 NE 28 46 15 25 1004.9 1003.8 0.0
27/12:00am 28.2 23.7 13.7 41 8.8 NE 30 48 16 26 1005.5 1004.4 0.0
 
Date/Time
CDT
Temp
°C
App
Temp
°C
Dew
Point
°C
Rel
Hum
%
Delta-T
°C
Wind Press
QNH
hPa
Press
MSL
hPa
Rain since
9am
mm
Dir  Spd
km/h
Gust
km/h
Spd
kts
Gust
kts
26/11:44pm 28.0 23.9 13.9 42 8.5 NE 28 46 15 25 1005.8 1004.7 0.0
26/11:30pm 28.2 24.1 13.7 41 8.8 NE 28 43 15 23 1006.1 1005.0 0.0
26/11:00pm 28.3 24.2 13.8 41 8.8 NE 28 44 15 24 1006.6 1005.5 0.0
26/10:42pm 28.0 23.9 13.9 42 8.5 NE 28 46 15 25 1006.9 1005.9 0.0
26/10:30pm 27.9 24.2 13.8 42 8.5 NE 26 44 14 24 1007.1 1006.1 0.0
26/10:00pm 27.8 24.5 14.1 43 8.3 NE 24 37 13 20 1007.4 1006.4 0.0
26/09:30pm 27.4 24.4 13.7 43 8.3 NE 22 33 12 18 1007.7 1006.6 0.0
26/09:00pm 27.5 24.8 13.4 41 8.5 NE 20 35 11 19 1007.9 1006.8 0.0
26/08:30pm 27.7 25.0 13.6 42 8.5 NE 20 32 11 17 1008.0 1006.9 0.0
26/08:00pm 28.0 25.6 13.9 42 8.5 NE 19 33 10 18 1008.0 1006.9 0.0
26/07:30pm 28.3 26.3 13.8 41 8.8 NE 17 26 9 14 1008.1 1007.0 0.0
26/07:00pm 28.4 27.3 14.3 42 8.6 NE 13 20 7 11 1008.1 1007.0 0.0
26/06:30pm 28.4 26.8 15.0 44 8.3 NE 17 24 9 13 1008.0 1006.9 0.0
26/06:00pm 28.2 27.3 15.8 47 7.8 NE 15 22 8 12 1008.0 1006.9 0.0
26/05:30pm 28.0 27.2 16.0 48 7.5 ENE 15 20 8 11 1008.4 1007.3 0.0
26/05:00pm 28.0 26.8 16.0 48 7.5 E 17 28 9 15 1008.7 1007.6 0.0
26/04:30pm 28.2 27.5 16.5 49 7.4 E 15 19 8 10 1009.3 1008.3 0.0
26/04:00pm 28.3 28.3 17.2 51 7.1 ENE 13 19 7 10 1009.4 1008.4 0.0

Latest Capital City Observations: Canberra | Sydney | Melbourne | Brisbane | Adelaide | Perth | Hobart | Darwin

Other Formats:

Comma delimited format used in spreadsheet applications
http://www.bom.gov.au/fwo/IDS60901/IDS60901.94683.axf

JavaScript Object Notation format (JSON) in row-major order
http://www.bom.gov.au/fwo/IDS60901/IDS60901.94683.json